Time;durP1;ratioP1;P1;durP2;ratioP2;P2;SDS_P1;SDS_P2;PMS_P1;PMS_P2;Temp;Humidity;BMP_temperature;BMP_pressure;BME280_temperature;BME280_humidity;BME280_pressure;Samples;Min_cycle;Max_cycle;Signal;HPM_P1;HPM_P2
2022/01/24 00:00:17;;;;;;;8.33;6.50;;;5.60;99.90;;;;;;4999473;28;20175;-77
2022/01/24 00:02:45;;;;;;;8.43;6.83;;;5.60;99.90;;;;;;4999688;28;20192;-78
2022/01/24 00:05:12;;;;;;;9.03;6.80;;;5.60;99.90;;;;;;4999436;28;20169;-77
2022/01/24 00:07:38;;;;;;;11.77;7.20;;;5.60;99.90;;;;;;4999479;28;20273;-77
2022/01/24 00:10:12;;;;;;;8.20;6.90;;;5.60;99.90;;;;;;4984274;28;20195;-77
2022/01/24 00:15:15;;;;;;;7.37;6.33;;;5.70;99.90;;;;;;4960795;28;20193;-78
2022/01/24 00:17:48;;;;;;;9.47;7.07;;;5.60;99.90;;;;;;4961258;28;20191;-78
2022/01/24 00:28:28;;;;;;;7.87;6.53;;;5.60;99.90;;;;;;4960796;28;20185;-76
2022/01/24 00:31:04;;;;;;;9.63;6.43;;;5.50;99.90;;;;;;4943405;28;20189;-76
2022/01/24 00:33:30;;;;;;;8.37;6.73;;;5.50;99.90;;;;;;4943601;28;20191;-77
2022/01/24 00:35:56;;;;;;;7.90;5.90;;;5.60;99.90;;;;;;4942837;28;20255;-77
2022/01/24 00:38:33;;;;;;;7.13;6.40;;;5.50;99.90;;;;;;4943009;28;20176;-76
2022/01/24 00:41:04;;;;;;;8.03;6.13;;;5.50;99.90;;;;;;4968568;28;20171;-76
2022/01/24 00:43:56;;;;;;;9.10;6.63;;;5.50;99.90;;;;;;4998947;28;20200;-76
2022/01/24 00:46:39;;;;;;;6.90;6.20;;;5.50;99.90;;;;;;4996245;28;20180;-77
2022/01/24 00:57:05;;;;;;;8.07;6.70;;;5.30;99.90;;;;;;4981232;28;20192;-76
2022/01/24 00:59:30;;;;;;;9.33;7.37;;;5.40;99.90;;;;;;4963186;28;20185;-76
2022/01/24 01:01:56;;;;;;;8.57;6.90;;;5.40;99.90;;;;;;4946534;28;20196;-76
2022/01/24 01:04:34;;;;;;;6.80;6.10;;;5.40;99.90;;;;;;4962741;28;20233;-76
2022/01/24 01:07:05;;;;;;;7.73;6.93;;;5.40;99.90;;;;;;4957316;28;20171;-76
2022/01/24 01:20:33;;;;;;;8.43;6.40;;;5.40;99.90;;;;;;4979011;28;20194;-75
2022/01/24 01:23:11;;;;;;;8.00;7.20;;;5.40;99.90;;;;;;4962737;28;20202;-79
2022/01/24 01:25:39;;;;;;;7.07;6.33;;;5.50;99.90;;;;;;4964401;28;20168;-78
2022/01/24 01:28:04;;;;;;;8.17;6.70;;;5.40;99.90;;;;;;4975427;28;20267;-75
2022/01/24 01:30:42;;;;;;;10.00;7.50;;;5.40;99.90;;;;;;4971403;28;20230;-75
2022/01/24 01:33:27;;;;;;;7.77;6.97;;;5.30;99.90;;;;;;4971957;28;20258;-75
2022/01/24 01:36:18;;;;;;;8.90;6.73;;;5.40;99.90;;;;;;4972077;28;20216;-75
2022/01/24 01:52:57;;;;;;;12.50;8.43;;;5.30;99.90;;;;;;4995390;28;20215;-74
2022/01/24 01:55:37;;;;;;;10.60;8.70;;;5.20;99.90;;;;;;4991487;28;20168;-75
2022/01/24 01:58:08;;;;;;;9.13;7.93;;;5.30;99.90;;;;;;4980709;28;20215;-75
2022/01/24 02:00:38;;;;;;;10.77;8.10;;;5.30;99.90;;;;;;4950829;28;20176;-74
2022/01/24 02:03:06;;;;;;;10.57;9.03;;;5.20;99.90;;;;;;4949930;28;20194;-75
2022/01/24 02:05:33;;;;;;;10.77;8.17;;;5.20;99.90;;;;;;4948127;28;20278;-75
2022/01/24 02:07:58;;;;;;;13.13;9.60;;;5.20;99.90;;;;;;4948169;28;20184;-74
2022/01/24 02:10:25;;;;;;;12.70;8.60;;;5.20;99.90;;;;;;4982137;28;20187;-74
2022/01/24 02:12:56;;;;;;;10.50;8.33;;;5.20;99.90;;;;;;4994299;28;20213;-77
2022/01/24 02:21:05;;;;;;;10.90;9.17;;;5.20;99.90;;;;;;4958827;28;20187;-78
2022/01/24 02:25:58;;;;;;;16.90;11.77;;;5.20;99.90;;;;;;4962334;28;20191;-76
2022/01/24 02:28:27;;;;;;;9.83;8.67;;;5.20;99.90;;;;;;4976773;28;20277;-79
2022/01/24 02:31:58;;;;;;;12.93;9.13;;;5.20;99.90;;;;;;4961534;28;20180;-76
2022/01/24 02:33:53;;;;;;;11.53;9.13;;;5.10;99.90;;;;;;4953446;28;20282;-78
2022/01/24 02:36:21;;;;;;;15.63;9.83;;;5.10;99.90;;;;;;4957375;28;20207;-78
2022/01/24 02:49:41;;;;;;;10.83;8.83;;;5.10;99.90;;;;;;4944722;28;20190;-75
2022/01/24 02:52:16;;;;;;;9.63;8.53;;;5.10;99.90;;;;;;4964554;28;20205;-75
2022/01/24 02:54:57;;;;;;;10.20;9.10;;;5.10;99.90;;;;;;4963773;28;20194;-76
2022/01/24 02:57:23;;;;;;;9.90;8.43;;;5.10;99.90;;;;;;4979778;28;20274;-76
2022/01/24 02:59:48;;;;;;;12.03;8.97;;;5.10;99.90;;;;;;4963427;28;20186;-77
2022/01/24 03:02:14;;;;;;;12.07;8.63;;;5.20;99.90;;;;;;4996236;28;20205;-74
2022/01/24 03:04:39;;;;;;;10.37;8.97;;;5.20;99.90;;;;;;4964267;28;20179;-75
2022/01/24 03:07:12;;;;;;;12.10;9.27;;;5.10;99.90;;;;;;4963794;28;20190;-75
2022/01/24 03:09:38;;;;;;;9.73;8.57;;;5.10;99.90;;;;;;4982080;28;20171;-75
2022/01/24 03:12:39;;;;;;;10.57;8.93;;;5.20;99.90;;;;;;4999779;28;20540;-76
2022/01/24 03:15:06;;;;;;;10.40;9.30;;;5.10;99.90;;;;;;5015930;23;20290;-82
2022/01/24 03:17:32;;;;;;;10.17;8.50;;;5.00;99.90;;;;;;4995212;28;20218;-83
2022/01/24 03:19:59;;;;;;;11.00;8.53;;;5.00;99.90;;;;;;4990677;28;20195;-83
2022/01/24 03:22:25;;;;;;;10.00;8.80;;;5.10;99.90;;;;;;5008670;28;20221;-83
2022/01/24 03:24:50;;;;;;;10.83;8.40;;;5.10;99.90;;;;;;5001542;28;20201;-83
2022/01/24 03:27:16;;;;;;;10.17;8.27;;;5.10;99.90;;;;;;4987723;28;20611;-83
2022/01/24 03:29:42;;;;;;;8.53;7.53;;;5.00;99.90;;;;;;4985633;28;20185;-83
2022/01/24 03:32:08;;;;;;;9.83;7.60;;;5.00;99.90;;;;;;5005120;28;20187;-83
2022/01/24 03:34:34;;;;;;;7.83;7.00;;;5.10;99.90;;;;;;5003407;28;20227;-83
2022/01/24 03:37:00;;;;;;;9.27;7.23;;;5.10;99.90;;;;;;4984402;28;20201;-82
2022/01/24 03:39:26;;;;;;;8.07;6.30;;;5.10;99.90;;;;;;4984891;28;20282;-83
2022/01/24 03:41:52;;;;;;;11.07;6.70;;;5.00;99.90;;;;;;5001160;28;20221;-83
2022/01/24 03:44:19;;;;;;;7.67;6.83;;;5.00;99.90;;;;;;4984990;28;20276;-83
2022/01/24 03:47:00;;;;;;;9.50;6.70;;;5.00;99.90;;;;;;4989972;28;20188;-83
2022/01/24 03:49:49;;;;;;;7.63;6.53;;;4.90;99.90;;;;;;4998011;28;20176;-83
2022/01/24 03:52:17;;;;;;;12.03;6.80;;;4.90;99.90;;;;;;4984090;28;20186;-83
2022/01/24 03:54:43;;;;;;;9.73;7.10;;;4.90;99.90;;;;;;4983932;28;20195;-83
2022/01/24 03:57:14;;;;;;;9.37;7.10;;;4.90;99.90;;;;;;4984080;28;20207;-83
2022/01/24 03:59:40;;;;;;;8.50;7.47;;;4.80;99.90;;;;;;5001051;28;20179;-83
2022/01/24 04:02:06;;;;;;;10.30;7.20;;;4.80;99.90;;;;;;5008668;28;20179;-83
2022/01/24 04:04:31;;;;;;;8.57;7.47;;;4.80;99.90;;;;;;5002505;28;20214;-83
2022/01/24 04:06:57;;;;;;;9.17;7.30;;;4.70;99.90;;;;;;4987097;28;20182;-83
2022/01/24 04:09:23;;;;;;;10.10;7.93;;;4.80;99.90;;;;;;4982464;28;20203;-82
2022/01/24 04:11:53;;;;;;;9.50;7.83;;;4.80;99.90;;;;;;4965331;28;20180;-83
2022/01/24 04:17:08;;;;;;;10.97;7.83;;;4.70;99.90;;;;;;4969530;28;20202;-83
2022/01/24 04:22:11;;;;;;;11.07;8.47;;;4.60;99.90;;;;;;4955320;28;20183;-83
2022/01/24 04:24:37;;;;;;;12.83;8.07;;;4.60;99.90;;;;;;4982058;28;20200;-83
2022/01/24 04:27:03;;;;;;;9.90;8.13;;;4.60;99.90;;;;;;4980970;28;20278;-83
2022/01/24 04:29:29;;;;;;;13.40;8.60;;;4.60;99.90;;;;;;4964561;28;20180;-83
2022/01/24 04:31:55;;;;;;;11.67;8.73;;;4.60;99.90;;;;;;4981074;28;20187;-83
2022/01/24 04:34:21;;;;;;;11.13;8.67;;;4.60;99.90;;;;;;4980493;28;20195;-83
2022/01/24 04:36:47;;;;;;;11.47;8.60;;;4.60;99.90;;;;;;4981387;28;20235;-82
2022/01/24 04:39:13;;;;;;;10.50;8.20;;;4.60;99.90;;;;;;4981046;28;20176;-83
2022/01/24 04:41:43;;;;;;;12.57;8.87;;;4.70;99.90;;;;;;4982192;28;20240;-83
2022/01/24 04:54:43;;;;;;;14.23;10.07;;;4.60;99.90;;;;;;5001646;28;20203;-83
2022/01/24 04:57:10;;;;;;;14.50;10.17;;;4.60;99.90;;;;;;4984796;28;20210;-83
2022/01/24 04:59:36;;;;;;;16.03;11.67;;;4.50;99.90;;;;;;4986522;28;20579;-83
2022/01/24 05:02:03;;;;;;;12.23;10.90;;;4.50;99.90;;;;;;4982922;28;20175;-83
2022/01/24 05:04:29;;;;;;;13.67;10.87;;;4.50;99.90;;;;;;4983263;28;20649;-83
2022/01/24 05:06:55;;;;;;;14.20;10.43;;;4.50;99.90;;;;;;4969265;28;20210;-83
2022/01/24 05:09:21;;;;;;;12.90;10.17;;;4.50;99.90;;;;;;4983292;28;20179;-83
2022/01/24 05:11:55;;;;;;;12.60;10.10;;;4.50;99.90;;;;;;4966239;28;20190;-83
2022/01/24 05:25:19;;;;;;;14.73;11.50;;;4.50;99.90;;;;;;4946736;29;20205;-83
2022/01/24 05:27:45;;;;;;;14.53;11.37;;;4.60;99.90;;;;;;4945671;29;20176;-82
2022/01/24 05:30:13;;;;;;;13.17;10.77;;;4.60;99.90;;;;;;4945503;29;20192;-83
2022/01/24 05:32:39;;;;;;;14.13;11.03;;;4.60;99.90;;;;;;4961151;29;20184;-82
2022/01/24 05:35:05;;;;;;;16.17;11.60;;;4.60;99.90;;;;;;4945277;29;20196;-83
2022/01/24 05:37:30;;;;;;;15.17;12.70;;;4.60;99.90;;;;;;4944995;29;20208;-82
2022/01/24 05:40:00;;;;;;;16.47;12.43;;;4.80;99.90;;;;;;4945024;29;20188;-83
2022/01/24 05:42:26;;;;;;;16.33;11.93;;;4.80;99.90;;;;;;4945178;29;20177;-82
2022/01/24 05:44:55;;;;;;;15.17;11.67;;;4.80;99.90;;;;;;4961759;29;20197;-83
2022/01/24 05:47:20;;;;;;;16.23;12.17;;;4.70;99.90;;;;;;4966218;28;20176;-82
2022/01/24 05:49:46;;;;;;;16.07;12.17;;;4.70;99.90;;;;;;4930343;29;20189;-83
2022/01/24 05:52:13;;;;;;;17.07;13.43;;;4.70;99.90;;;;;;4954046;29;20188;-82
2022/01/24 05:54:39;;;;;;;17.00;12.27;;;4.70;99.90;;;;;;4930073;29;20196;-84
2022/01/24 05:57:07;;;;;;;17.57;13.27;;;4.70;99.90;;;;;;4928470;29;20228;-82
2022/01/24 05:59:34;;;;;;;18.60;13.23;;;4.70;99.90;;;;;;4912736;29;20273;-83
2022/01/24 06:02:00;;;;;;;20.03;14.03;;;4.70;99.90;;;;;;4940129;28;20296;-83
2022/01/24 06:04:26;;;;;;;22.60;14.90;;;4.80;99.90;;;;;;4995451;28;20194;-83
2022/01/24 06:06:51;;;;;;;20.50;15.17;;;4.80;99.90;;;;;;4981516;28;20180;-83
2022/01/24 06:09:17;;;;;;;20.60;14.67;;;4.80;99.90;;;;;;4980786;28;20195;-83
2022/01/24 06:11:43;;;;;;;19.80;14.70;;;4.80;99.90;;;;;;4982002;28;20191;-83
2022/01/24 06:14:10;;;;;;;19.87;15.17;;;4.80;99.90;;;;;;4982375;28;20513;-83
2022/01/24 06:16:36;;;;;;;20.60;14.90;;;4.80;99.90;;;;;;4984579;28;20223;-83
2022/01/24 06:19:03;;;;;;;19.57;14.37;;;4.80;99.90;;;;;;4979926;28;20240;-83
2022/01/24 06:21:29;;;;;;;21.07;15.43;;;4.80;99.90;;;;;;4979496;28;20176;-84
2022/01/24 06:23:55;;;;;;;19.47;14.40;;;4.80;99.90;;;;;;4979021;28;20187;-83
2022/01/24 06:26:21;;;;;;;22.17;15.80;;;4.90;99.90;;;;;;4981328;28;20195;-83
2022/01/24 06:28:57;;;;;;;20.97;15.07;;;4.90;99.90;;;;;;4995854;28;20168;-84
2022/01/24 06:31:22;;;;;;;20.00;14.17;;;4.90;99.90;;;;;;4997212;28;20274;-83
2022/01/24 06:33:48;;;;;;;18.27;14.13;;;4.90;99.90;;;;;;4996421;28;20160;-83
2022/01/24 06:36:15;;;;;;;18.00;14.20;;;4.90;99.90;;;;;;4982422;28;20212;-84
2022/01/24 06:38:41;;;;;;;19.93;14.00;;;4.90;99.90;;;;;;4998292;28;20180;-84
2022/01/24 06:41:07;;;;;;;20.30;14.30;;;4.80;99.90;;;;;;4996796;28;20341;-84
2022/01/24 06:43:32;;;;;;;20.83;14.83;;;4.80;99.90;;;;;;4995514;28;20212;-84
2022/01/24 06:45:58;;;;;;;19.07;14.57;;;4.80;99.90;;;;;;4995613;28;20205;-82
2022/01/24 06:48:31;;;;;;;21.27;14.70;;;4.80;99.90;;;;;;4980151;28;20188;-83
2022/01/24 06:50:57;;;;;;;22.33;16.17;;;4.90;99.90;;;;;;4997735;28;20180;-83
2022/01/24 06:53:50;;;;;;;24.10;16.67;;;5.00;99.90;;;;;;4998483;28;20211;-82
2022/01/24 06:56:21;;;;;;;23.63;16.00;;;4.90;99.90;;;;;;4981997;28;20209;-83
2022/01/24 06:58:47;;;;;;;25.23;17.13;;;4.90;99.90;;;;;;4982030;28;20190;-83
2022/01/24 07:01:26;;;;;;;24.23;17.17;;;4.90;99.90;;;;;;4998023;28;20174;-83
2022/01/24 07:03:52;;;;;;;24.27;16.50;;;4.90;99.90;;;;;;4997519;28;20160;-83
2022/01/24 07:06:17;;;;;;;21.93;16.67;;;4.90;99.90;;;;;;4997223;28;20199;-84
2022/01/24 07:08:43;;;;;;;26.00;17.40;;;4.90;99.90;;;;;;4997339;28;20193;-83
2022/01/24 07:11:10;;;;;;;27.83;17.80;;;4.90;99.90;;;;;;4981069;28;20188;-84
2022/01/24 07:13:35;;;;;;;23.47;16.50;;;5.00;99.90;;;;;;4981576;28;20176;-84
2022/01/24 07:16:04;;;;;;;25.30;16.97;;;5.00;99.90;;;;;;4981298;28;20282;-84
2022/01/24 07:20:58;;;;;;;26.40;17.33;;;4.90;99.90;;;;;;4996774;28;20210;-83
2022/01/24 07:23:25;;;;;;;25.97;18.47;;;5.00;99.90;;;;;;4996558;28;20166;-84
2022/01/24 07:25:51;;;;;;;26.43;17.47;;;4.90;99.90;;;;;;4979205;28;20219;-83
2022/01/24 07:28:17;;;;;;;24.60;17.83;;;4.90;99.90;;;;;;4979623;28;20189;-83
2022/01/24 07:30:46;;;;;;;29.27;18.80;;;4.90;99.90;;;;;;4976367;28;20249;-83
2022/01/24 07:33:14;;;;;;;27.80;18.90;;;4.90;99.90;;;;;;4977398;28;20187;-84
2022/01/24 07:35:41;;;;;;;30.53;18.93;;;4.90;99.90;;;;;;4999162;28;20199;-84
2022/01/24 07:38:07;;;;;;;30.00;20.17;;;4.80;99.90;;;;;;4995701;28;20620;-84
2022/01/24 07:40:38;;;;;;;27.63;18.93;;;4.80;99.90;;;;;;4995462;28;20195;-83
2022/01/24 07:43:12;;;;;;;28.77;19.40;;;4.90;99.90;;;;;;4979341;28;20171;-83
2022/01/24 07:45:40;;;;;;;29.10;18.33;;;4.80;99.90;;;;;;4973674;28;20208;-83
2022/01/24 07:48:06;;;;;;;28.83;19.07;;;4.80;99.90;;;;;;4999696;28;20187;-84
2022/01/24 07:50:35;;;;;;;28.63;19.47;;;4.80;99.90;;;;;;4995208;28;20251;-83
2022/01/24 07:53:01;;;;;;;29.73;19.60;;;4.80;99.90;;;;;;4993506;28;20251;-84
2022/01/24 07:55:27;;;;;;;28.83;18.50;;;4.80;99.90;;;;;;4991990;28;20203;-84
2022/01/24 07:57:53;;;;;;;31.63;20.60;;;5.00;99.90;;;;;;4992010;28;20236;-84
2022/01/24 08:00:19;;;;;;;35.20;22.47;;;5.10;99.90;;;;;;4992811;28;20251;-83
2022/01/24 08:02:45;;;;;;;32.77;21.17;;;5.00;99.90;;;;;;4994924;28;20734;-83
2022/01/24 08:05:12;;;;;;;30.47;20.33;;;5.00;99.90;;;;;;5001688;28;20197;-83
2022/01/24 08:07:38;;;;;;;32.40;20.87;;;5.10;99.90;;;;;;5000686;28;20183;-82
2022/01/24 08:10:06;;;;;;;37.73;22.17;;;5.00;99.90;;;;;;4995526;28;20190;-84
2022/01/24 08:12:34;;;;;;;33.17;21.70;;;5.00;99.90;;;;;;4985494;28;20222;-84
2022/01/24 08:15:00;;;;;;;32.70;22.00;;;4.90;99.90;;;;;;4982903;28;20202;-84
2022/01/24 08:17:26;;;;;;;35.10;21.80;;;4.90;99.90;;;;;;4967769;28;20212;-83
2022/01/24 08:19:55;;;;;;;36.83;23.40;;;5.00;99.90;;;;;;4985492;28;20157;-84
2022/01/24 08:22:21;;;;;;;35.57;21.67;;;5.00;99.90;;;;;;4980341;28;20192;-83
2022/01/24 08:24:49;;;;;;;36.47;21.73;;;5.00;99.90;;;;;;4980182;28;20281;-84
2022/01/24 08:27:16;;;;;;;32.47;21.70;;;5.00;99.90;;;;;;4979353;29;20165;-79
2022/01/24 08:29:51;;;;;;;37.60;23.20;;;5.00;99.90;;;;;;4977671;29;20185;-84
2022/01/24 08:32:18;;;;;;;35.67;23.87;;;5.10;99.90;;;;;;4975785;29;20172;-83
2022/01/24 08:34:45;;;;;;;35.27;22.27;;;5.10;99.90;;;;;;4974133;28;20529;-83
2022/01/24 08:37:11;;;;;;;39.07;23.77;;;5.10;99.90;;;;;;4937360;29;20208;-84
2022/01/24 08:39:38;;;;;;;35.10;24.17;;;5.20;99.90;;;;;;4953125;29;20200;-83
2022/01/24 08:42:29;;;;;;;40.27;24.50;;;5.20;99.90;;;;;;4952340;29;20182;-82
2022/01/24 08:47:24;;;;;;;40.33;25.73;;;5.10;99.90;;;;;;4979559;28;20190;-83
2022/01/24 08:49:51;;;;;;;38.53;24.73;;;5.20;99.90;;;;;;4949937;29;20184;-84
2022/01/24 08:52:18;;;;;;;42.10;25.67;;;5.20;99.90;;;;;;4950982;29;20213;-83
2022/01/24 08:54:56;;;;;;;40.93;25.43;;;5.10;99.90;;;;;;4965410;28;20196;-83
2022/01/24 08:57:25;;;;;;;40.53;26.90;;;5.10;99.90;;;;;;4966893;29;20217;-83
2022/01/24 08:59:55;;;;;;;40.20;25.80;;;5.20;99.90;;;;;;4958688;28;20632;-83
2022/01/24 09:02:23;;;;;;;44.43;27.87;;;5.10;99.90;;;;;;4946059;28;20247;-83
2022/01/24 09:04:51;;;;;;;43.63;28.53;;;5.20;99.90;;;;;;4953588;29;20208;-83
2022/01/24 09:07:21;;;;;;;41.43;26.77;;;5.10;99.90;;;;;;4964685;28;20207;-83
2022/01/24 09:09:49;;;;;;;44.43;28.70;;;5.20;99.90;;;;;;4957334;29;20184;-84
2022/01/24 09:12:15;;;;;;;43.63;27.07;;;5.20;99.90;;;;;;4960660;28;20684;-83
2022/01/24 09:15:16;;;;;;;43.07;27.53;;;5.20;99.90;;;;;;4984128;28;20262;-83
2022/01/24 09:17:51;;;;;;;41.73;25.77;;;5.30;99.90;;;;;;4953519;29;20217;-82
2022/01/24 09:20:17;;;;;;;44.37;28.53;;;5.30;99.90;;;;;;4960398;28;20671;-83
2022/01/24 09:22:44;;;;;;;44.27;27.33;;;5.30;99.90;;;;;;4959463;28;20706;-83
2022/01/24 09:25:12;;;;;;;44.20;27.80;;;5.30;99.90;;;;;;4952527;28;20652;-83
2022/01/24 09:27:43;;;;;;;45.50;27.40;;;5.30;99.90;;;;;;4955630;28;20198;-83
2022/01/24 09:30:15;;;;;;;43.10;26.53;;;5.30;99.90;;;;;;4940463;29;20305;-83
2022/01/24 09:32:41;;;;;;;46.03;28.70;;;5.30;99.90;;;;;;4956626;29;20599;-83
2022/01/24 09:35:10;;;;;;;44.50;27.47;;;5.30;99.90;;;;;;4959742;28;20196;-83
2022/01/24 09:37:43;;;;;;;47.40;28.07;;;5.30;99.90;;;;;;4954948;28;20205;-82
2022/01/24 09:40:15;;;;;;;45.53;25.93;;;5.20;99.90;;;;;;4975687;28;20181;-83
2022/01/24 09:42:43;;;;;;;43.03;25.60;;;5.20;99.90;;;;;;4958167;29;20192;-82
2022/01/24 09:45:16;;;;;;;38.67;24.30;;;5.20;99.90;;;;;;4961513;29;20224;-83
2022/01/24 09:47:43;;;;;;;37.40;24.60;;;5.20;99.90;;;;;;4988001;28;20195;-83
2022/01/24 09:50:12;;;;;;;38.13;24.00;;;5.20;99.90;;;;;;4978411;28;20341;-82
2022/01/24 09:52:42;;;;;;;37.50;24.57;;;5.20;99.90;;;;;;4960692;28;20176;-82
2022/01/24 09:55:12;;;;;;;38.27;23.70;;;5.20;99.90;;;;;;4963165;28;20634;-83
2022/01/24 09:57:41;;;;;;;37.37;23.00;;;5.30;99.90;;;;;;4963389;28;20212;-82
2022/01/24 10:00:10;;;;;;;39.67;23.67;;;5.30;99.90;;;;;;4967940;28;20183;-83
2022/01/24 10:02:40;;;;;;;39.87;23.93;;;5.20;99.90;;;;;;4962444;28;20211;-83
2022/01/24 10:05:16;;;;;;;41.20;24.37;;;5.20;99.90;;;;;;4963484;28;20305;-82
2022/01/24 10:07:52;;;;;;;33.87;22.00;;;5.20;99.90;;;;;;4957716;28;20186;-83
2022/01/24 10:10:34;;;;;;;36.00;22.47;;;5.30;99.90;;;;;;4951858;29;20188;-83
2022/01/24 10:16:29;;;;;;;37.13;22.43;;;5.30;99.90;;;;;;4982684;28;20215;-83
2022/01/24 10:19:16;;;;;;;40.73;23.83;;;5.40;99.90;;;;;;4956717;28;20181;-84
2022/01/24 10:21:48;;;;;;;36.37;23.07;;;5.40;99.90;;;;;;4969135;28;20181;-83
2022/01/24 10:24:26;;;;;;;39.70;23.83;;;5.40;99.90;;;;;;4953815;28;20223;-83
2022/01/24 10:27:17;;;;;;;38.13;23.60;;;5.40;99.90;;;;;;4968451;28;20168;-79
2022/01/24 10:30:08;;;;;;;35.87;23.43;;;5.40;99.90;;;;;;4958211;28;20176;-80
2022/01/24 10:32:42;;;;;;;36.07;21.30;;;5.40;99.90;;;;;;4984472;28;20235;-83
2022/01/24 10:35:33;;;;;;;35.63;22.20;;;5.40;99.90;;;;;;4986557;28;20694;-83
2022/01/24 10:43:36;;;;;;;34.40;21.23;;;5.60;99.90;;;;;;4986810;28;20187;-83
2022/01/24 10:46:02;;;;;;;35.07;21.77;;;5.50;99.90;;;;;;4989457;28;20198;-80
2022/01/24 10:55:53;;;;;;;30.70;17.80;;;5.50;99.90;;;;;;4947374;29;20274;-81
2022/01/24 11:02:02;;;;;;;30.03;19.03;;;5.40;99.90;;;;;;4940028;28;20250;-82
2022/01/24 11:04:28;;;;;;;34.30;21.07;;;5.40;99.90;;;;;;4956674;28;20172;-83
2022/01/24 11:07:02;;;;;;;35.07;20.90;;;5.40;99.90;;;;;;4968845;28;20182;-83
2022/01/24 11:09:40;;;;;;;32.77;20.20;;;5.40;99.90;;;;;;4954440;28;20176;-83
2022/01/24 11:12:11;;;;;;;33.40;19.97;;;5.40;99.90;;;;;;4956632;28;20173;-83
2022/01/24 11:14:39;;;;;;;34.63;19.47;;;5.50;99.90;;;;;;4972707;28;20231;-82
2022/01/24 11:17:10;;;;;;;34.23;20.60;;;5.50;99.90;;;;;;4975824;28;20204;-83
2022/01/24 11:22:31;;;;;;;33.43;20.90;;;5.40;99.90;;;;;;4974454;28;20443;-81
2022/01/24 11:25:02;;;;;;;35.43;21.83;;;5.40;99.90;;;;;;4973311;28;20211;-83
2022/01/24 11:27:28;;;;;;;33.73;21.07;;;5.40;99.90;;;;;;4957091;28;20192;-83
2022/01/24 11:29:57;;;;;;;33.50;20.47;;;5.40;99.90;;;;;;4975386;28;20271;-81
2022/01/24 11:32:49;;;;;;;34.83;21.47;;;5.40;99.90;;;;;;4968886;29;20193;-81
2022/01/24 11:35:29;;;;;;;35.23;21.37;;;5.40;99.90;;;;;;4953271;29;20200;-80
2022/01/24 11:37:56;;;;;;;39.53;23.13;;;5.40;99.90;;;;;;4968934;29;20267;-81
2022/01/24 11:40:25;;;;;;;39.60;22.53;;;5.30;99.90;;;;;;4952997;29;20649;-82
2022/01/24 11:42:52;;;;;;;35.87;23.27;;;5.30;99.90;;;;;;4945802;28;20209;-82
2022/01/24 11:45:45;;;;;;;42.47;23.07;;;5.30;99.90;;;;;;4959791;29;20222;-82
2022/01/24 11:48:20;;;;;;;38.33;23.37;;;5.30;99.90;;;;;;4946512;28;20203;-81
2022/01/24 11:51:11;;;;;;;40.37;24.27;;;5.30;99.90;;;;;;4964410;28;20174;-81
2022/01/24 11:53:44;;;;;;;42.57;25.13;;;5.40;99.90;;;;;;4964605;28;20173;-82
2022/01/24 11:56:21;;;;;;;42.83;25.43;;;5.40;99.90;;;;;;4963544;28;20197;-82
2022/01/24 11:58:48;;;;;;;43.27;25.40;;;5.40;99.90;;;;;;4964034;28;20186;-82
2022/01/24 12:01:33;;;;;;;41.47;25.30;;;5.40;99.90;;;;;;4967989;28;20203;-82
2022/01/24 12:03:59;;;;;;;41.03;25.07;;;5.40;99.90;;;;;;4983782;28;20186;-82
2022/01/24 12:06:25;;;;;;;41.63;25.17;;;5.30;99.90;;;;;;4982334;28;20269;-82
2022/01/24 12:09:00;;;;;;;42.60;25.33;;;5.40;99.90;;;;;;4982535;28;20220;-80
2022/01/24 12:11:31;;;;;;;45.23;26.57;;;5.40;99.90;;;;;;4966211;28;20183;-82
2022/01/24 12:14:10;;;;;;;41.47;24.70;;;5.30;99.90;;;;;;4983050;28;20186;-82
2022/01/24 12:16:42;;;;;;;48.17;27.83;;;5.40;99.90;;;;;;4966152;28;20207;-82
2022/01/24 12:19:10;;;;;;;53.13;29.00;;;5.50;99.90;;;;;;5009891;28;20187;-82
2022/01/24 12:21:39;;;;;;;50.83;28.97;;;5.40;99.90;;;;;;4999367;28;20251;-81
2022/01/24 12:24:10;;;;;;;54.30;29.73;;;5.40;99.90;;;;;;4985776;28;20175;-82
2022/01/24 12:26:38;;;;;;;49.23;29.30;;;5.40;99.90;;;;;;4999266;28;20195;-82
2022/01/24 12:29:10;;;;;;;55.53;29.87;;;5.30;99.90;;;;;;5014526;28;20210;-81
2022/01/24 12:32:19;;;;;;;55.60;31.87;;;5.30;99.90;;;;;;5000844;28;20172;-82
2022/01/24 12:34:45;;;;;;;55.57;31.47;;;5.30;99.90;;;;;;4995374;28;20219;-81
2022/01/24 12:37:30;;;;;;;55.27;32.10;;;5.30;99.90;;;;;;4999647;28;20207;-83
2022/01/24 12:40:07;;;;;;;54.20;31.43;;;5.30;99.90;;;;;;4997942;28;20197;-84
2022/01/24 12:42:46;;;;;;;58.67;33.67;;;5.30;99.90;;;;;;5000972;28;20167;-83
2022/01/24 12:48:15;;;;;;;55.83;32.80;;;5.30;99.90;;;;;;4981816;28;20187;-84
2022/01/24 12:50:51;;;;;;;56.70;34.13;;;5.10;99.90;;;;;;4973979;28;20190;-78
2022/01/24 12:53:18;;;;;;;60.47;33.97;;;5.10;99.90;;;;;;4955829;29;20180;-83
2022/01/24 12:55:45;;;;;;;57.97;34.90;;;5.10;99.90;;;;;;4938649;29;20196;-81
2022/01/24 12:58:12;;;;;;;58.07;33.57;;;5.00;99.90;;;;;;4938994;29;20202;-82
2022/01/24 13:00:56;;;;;;;58.27;33.13;;;5.00;99.90;;;;;;4955591;28;20192;-82
2022/01/24 13:03:50;;;;;;;58.43;32.97;;;5.10;99.90;;;;;;4991533;28;20185;-81
2022/01/24 13:06:18;;;;;;;55.90;31.77;;;5.20;99.90;;;;;;4971398;28;20204;-82
2022/01/24 13:09:16;;;;;;;55.77;32.07;;;5.10;99.90;;;;;;4970146;28;20185;-82
2022/01/24 13:12:13;;;;;;;54.30;31.30;;;5.10;99.90;;;;;;4970812;28;20177;-82
2022/01/24 13:14:52;;;;;;;54.07;30.20;;;5.10;99.90;;;;;;4972427;28;20232;-85
2022/01/24 13:23:07;;;;;;;52.93;30.70;;;5.10;99.90;;;;;;5006989;28;20186;-83
2022/01/24 13:25:37;;;;;;;51.80;30.10;;;5.10;99.90;;;;;;4991785;28;20195;-83
2022/01/24 13:28:09;;;;;;;49.20;30.33;;;5.10;99.90;;;;;;4989588;28;20207;-84
2022/01/24 13:30:40;;;;;;;51.40;30.37;;;5.00;99.90;;;;;;4973925;28;20179;-84
2022/01/24 13:33:16;;;;;;;53.87;30.43;;;5.00;99.90;;;;;;4988800;28;20220;-84
2022/01/24 13:35:53;;;;;;;56.27;31.47;;;5.10;99.90;;;;;;4974746;28;20223;-85
2022/01/24 13:38:28;;;;;;;51.03;29.17;;;5.10;99.90;;;;;;4989455;28;20197;-84
2022/01/24 13:41:08;;;;;;;50.20;28.57;;;5.10;99.90;;;;;;4970255;28;20215;-81
2022/01/24 13:43:56;;;;;;;55.70;30.90;;;5.20;99.90;;;;;;4985816;28;20183;-84
2022/01/24 13:46:39;;;;;;;53.13;30.23;;;5.20;99.90;;;;;;4970691;28;20216;-84
2022/01/24 13:49:11;;;;;;;45.77;28.97;;;5.20;99.90;;;;;;4970926;28;20177;-83
2022/01/24 13:51:50;;;;;;;51.00;29.60;;;5.20;99.90;;;;;;4965893;29;20184;-83
2022/01/24 13:54:25;;;;;;;49.63;29.30;;;5.10;99.90;;;;;;4964754;29;20172;-80
2022/01/24 13:57:09;;;;;;;49.10;29.47;;;5.00;99.90;;;;;;4984512;28;20211;-82
2022/01/24 13:59:36;;;;;;;49.20;29.03;;;5.00;99.90;;;;;;4985004;28;20251;-81
2022/01/24 14:02:19;;;;;;;49.07;29.20;;;5.10;99.90;;;;;;4986617;28;20182;-80
2022/01/24 14:04:57;;;;;;;45.43;27.37;;;5.00;99.90;;;;;;4984331;28;20199;-83
2022/01/24 14:07:30;;;;;;;48.87;28.53;;;5.00;99.90;;;;;;4989616;28;20188;-81
2022/01/24 14:10:00;;;;;;;48.50;30.10;;;5.00;99.90;;;;;;5003734;28;20238;-83
2022/01/24 14:12:44;;;;;;;51.93;30.50;;;5.10;99.90;;;;;;4987271;28;20184;-83
2022/01/24 14:15:34;;;;;;;48.90;29.83;;;5.10;99.90;;;;;;4980982;28;20314;-83
2022/01/24 14:20:55;;;;;;;46.83;29.17;;;5.00;99.90;;;;;;4981204;28;20197;-82
2022/01/24 14:23:35;;;;;;;45.00;27.37;;;4.90;99.90;;;;;;4983040;28;20267;-83
2022/01/24 14:26:18;;;;;;;48.57;28.93;;;4.90;99.90;;;;;;4950251;28;20197;-83
2022/01/24 14:28:44;;;;;;;43.67;26.57;;;4.90;99.90;;;;;;4952001;28;20188;-82
2022/01/24 14:31:16;;;;;;;46.57;28.73;;;4.90;99.90;;;;;;4951655;28;20531;-83
2022/01/24 14:33:43;;;;;;;45.60;27.73;;;4.90;99.90;;;;;;4967843;28;20535;-84
2022/01/24 14:36:15;;;;;;;48.40;29.80;;;5.00;99.90;;;;;;4982501;28;20225;-82
2022/01/24 14:38:53;;;;;;;52.57;30.07;;;4.90;99.90;;;;;;4950549;28;20192;-82
2022/01/24 14:41:32;;;;;;;48.87;29.87;;;4.80;99.90;;;;;;4950180;28;20171;-78
2022/01/24 14:46:45;;;;;;;48.07;28.80;;;4.90;99.90;;;;;;4969423;28;20191;-83
2022/01/24 14:49:16;;;;;;;47.50;28.13;;;5.00;99.90;;;;;;5000856;28;20183;-84
2022/01/24 14:51:45;;;;;;;46.27;26.57;;;5.00;99.90;;;;;;4985961;28;20183;-83
2022/01/24 14:54:15;;;;;;;42.77;26.27;;;4.90;99.90;;;;;;4970918;28;20274;-82
2022/01/24 14:56:43;;;;;;;42.57;25.90;;;4.90;99.90;;;;;;4950300;29;20212;-82
2022/01/24 14:59:12;;;;;;;43.10;25.00;;;4.90;99.90;;;;;;4952428;28;20200;-81
2022/01/24 15:01:38;;;;;;;40.27;25.80;;;4.90;99.90;;;;;;4950882;28;20262;-81
2022/01/24 15:04:04;;;;;;;41.43;26.83;;;4.80;99.90;;;;;;4950515;28;20279;-81
2022/01/24 15:06:31;;;;;;;46.07;27.40;;;4.90;99.90;;;;;;4950751;28;20263;-81
2022/01/24 15:09:00;;;;;;;44.67;27.33;;;4.90;99.90;;;;;;4952601;28;20247;-81
2022/01/24 15:11:31;;;;;;;42.27;26.87;;;4.90;99.90;;;;;;4955714;28;20194;-81